createdAt,value
2023-03-30T00:01:15.064Z,38.91
2023-03-30T00:03:47.587Z,39.01
2023-03-30T00:06:22.589Z,38.82
2023-03-30T00:08:57.080Z,38.91
2023-03-30T00:11:26.731Z,38.67
2023-03-30T00:13:54.638Z,38.74
2023-03-30T00:16:22.676Z,38.77
2023-03-30T00:18:50.747Z,38.93
2023-03-30T00:21:20.424Z,39.01
2023-03-30T00:23:49.108Z,39.04
2023-03-30T00:26:17.424Z,38.98
2023-03-30T00:28:46.197Z,38.86
2023-03-30T00:31:13.792Z,38.98
2023-03-30T00:33:46.398Z,39.06
2023-03-30T00:36:16.349Z,39.22
2023-03-30T00:38:45.441Z,39.29
2023-03-30T00:41:12.974Z,39.36
2023-03-30T00:44:50.907Z,39.49
2023-03-30T00:47:19.105Z,39.46
2023-03-30T00:49:46.987Z,39.73
2023-03-30T00:52:19.280Z,39.65
2023-03-30T00:54:47.428Z,39.70
2023-03-30T00:57:15.187Z,40.01
2023-03-30T00:59:42.853Z,39.95
2023-03-30T01:02:10.544Z,39.96
2023-03-30T01:04:38.899Z,40.12
2023-03-30T01:07:07.560Z,40.21
2023-03-30T01:09:35.608Z,40.28
2023-03-30T01:12:03.297Z,40.31
2023-03-30T01:14:31.256Z,40.29
2023-03-30T01:17:37.025Z,40.45
2023-03-30T01:20:28.337Z,40.77
2023-03-30T01:23:05.014Z,41.55
2023-03-30T01:25:56.580Z,41.99
2023-03-30T01:28:50.267Z,42.05
2023-03-30T01:32:01.158Z,42.66
2023-03-30T01:35:21.843Z,42.36
2023-03-30T01:38:26.355Z,42.23
2023-03-30T01:41:31.729Z,42.31
2023-03-30T01:44:21.802Z,42.57
2023-03-30T01:46:58.092Z,43.08
2023-03-30T01:49:37.907Z,42.76
2023-03-30T01:52:41.109Z,43.02
2023-03-30T01:55:37.978Z,42.87
2023-03-30T01:58:28.902Z,43.16
2023-03-30T02:00:59.576Z,43.41
2023-03-30T02:03:38.895Z,43.19
2023-03-30T02:06:18.191Z,43.58
2023-03-30T02:08:49.616Z,43.55
2023-03-30T02:11:18.136Z,43.64
2023-03-30T02:13:47.456Z,43.54
2023-03-30T02:16:26.704Z,43.85
2023-03-30T02:18:54.888Z,43.73
2023-03-30T02:21:22.401Z,44.05
2023-03-30T02:23:54.133Z,43.89
2023-03-30T02:26:22.858Z,44.14
2023-03-30T02:28:52.113Z,44.01
2023-03-30T02:31:19.798Z,44.48
2023-03-30T02:34:04.342Z,44.11
2023-03-30T02:37:00.282Z,44.13
2023-03-30T02:39:47.752Z,44.00
2023-03-30T02:43:00.011Z,44.59
2023-03-30T02:46:06.984Z,45.08
2023-03-30T02:49:17.702Z,46.32
2023-03-30T02:52:21.325Z,47.31
2023-03-30T02:54:58.931Z,47.56
2023-03-30T02:58:07.392Z,48.20
2023-03-30T03:01:16.078Z,48.08
2023-03-30T03:03:58.253Z,48.61
2023-03-30T03:06:28.389Z,48.74
2023-03-30T03:08:57.135Z,48.85
2023-03-30T03:11:30.241Z,49.17
2023-03-30T03:13:58.051Z,49.40
2023-03-30T03:16:26.646Z,49.33
2023-03-30T03:19:12.096Z,49.32
2023-03-30T03:21:40.920Z,49.32
2023-03-30T03:24:08.968Z,49.43
2023-03-30T03:27:08.928Z,49.63
2023-03-30T03:29:53.290Z,49.77
2023-03-30T03:32:20.872Z,50.43
2023-03-30T03:34:50.066Z,51.00
2023-03-30T03:37:18.603Z,50.73
2023-03-30T03:39:46.817Z,50.79
2023-03-30T03:42:16.090Z,50.80
2023-03-30T03:44:52.817Z,51.10
2023-03-30T03:47:22.997Z,51.42
2023-03-30T03:49:50.645Z,51.44
2023-03-30T03:52:18.122Z,51.68
2023-03-30T03:54:45.677Z,51.92
2023-03-30T03:57:13.245Z,52.06
2023-03-30T03:59:41.665Z,52.22
2023-03-30T04:02:09.255Z,52.11
2023-03-30T04:04:37.910Z,52.09
2023-03-30T04:07:05.649Z,52.00
2023-03-30T04:09:33.285Z,51.86
2023-03-30T04:12:31.082Z,52.07
2023-03-30T04:15:12.906Z,52.10
2023-03-30T04:17:50.016Z,52.21
2023-03-30T04:20:29.973Z,52.01
2023-03-30T04:23:09.676Z,52.02
2023-03-30T04:25:55.524Z,52.08
2023-03-30T04:29:00.202Z,52.08
2023-03-30T04:31:47.003Z,52.47
2023-03-30T04:34:35.905Z,52.28
2023-03-30T04:37:03.840Z,52.65
2023-03-30T04:39:43.997Z,52.45
2023-03-30T04:42:37.556Z,52.31
2023-03-30T04:45:40.504Z,52.42
2023-03-30T04:48:26.328Z,52.44
2023-03-30T04:51:07.513Z,52.57
2023-03-30T04:53:57.588Z,52.90
2023-03-30T04:56:56.205Z,52.77
2023-03-30T04:59:23.713Z,52.87
2023-03-30T05:02:03.938Z,52.68
2023-03-30T05:04:37.726Z,52.91
2023-03-30T05:07:19.715Z,53.11
2023-03-30T05:10:07.866Z,53.01
2023-03-30T05:12:56.828Z,53.02
2023-03-30T05:15:42.839Z,52.75
2023-03-30T05:18:36.505Z,52.59
2023-03-30T05:21:17.631Z,52.76
2023-03-30T05:24:00.017Z,52.37
2023-03-30T05:26:49.025Z,52.52
2023-03-30T05:29:30.577Z,52.18
2023-03-30T05:31:58.050Z,52.41
2023-03-30T05:34:54.465Z,52.53
2023-03-30T05:37:39.801Z,52.13
2023-03-30T05:40:33.292Z,51.84
2023-03-30T05:43:07.410Z,51.80
2023-03-30T05:45:51.531Z,51.72
2023-03-30T05:48:44.513Z,51.78
2023-03-30T05:51:30.005Z,51.91
2023-03-30T05:54:13.373Z,52.16
2023-03-30T05:56:51.867Z,51.98
2023-03-30T05:59:27.344Z,52.62
2023-03-30T06:02:17.822Z,52.39
2023-03-30T06:04:46.672Z,52.59
2023-03-30T06:07:14.724Z,52.38
2023-03-30T06:09:43.635Z,52.84
2023-03-30T06:12:22.728Z,52.65
2023-03-30T06:14:50.579Z,52.47
2023-03-30T06:17:30.037Z,53.09
2023-03-30T06:19:57.963Z,53.28
2023-03-30T06:22:25.503Z,53.43
2023-03-30T06:25:10.932Z,53.37
2023-03-30T06:27:38.459Z,54.22
2023-03-30T06:30:09.490Z,53.95
2023-03-30T06:32:39.329Z,54.18
2023-03-30T06:35:23.775Z,55.31
2023-03-30T06:37:52.671Z,55.47
2023-03-30T06:40:20.823Z,55.80
2023-03-30T06:42:50.633Z,56.33
2023-03-30T06:45:27.799Z,57.14
2023-03-30T06:47:56.297Z,58.58
2023-03-30T06:50:24.165Z,58.40
2023-03-30T06:53:11.912Z,58.86
2023-03-30T06:55:43.220Z,58.76
2023-03-30T06:58:16.328Z,59.17
2023-03-30T07:00:44.004Z,59.50
2023-03-30T07:03:29.927Z,59.23
2023-03-30T07:06:10.975Z,60.04
2023-03-30T07:08:40.293Z,59.42
2023-03-30T07:11:10.357Z,59.80
2023-03-30T07:13:40.697Z,60.30
2023-03-30T07:16:09.211Z,61.39
2023-03-30T07:18:36.768Z,60.82
2023-03-30T07:21:06.055Z,60.46
2023-03-30T07:23:39.063Z,61.56
2023-03-30T07:26:06.959Z,61.99
2023-03-30T07:28:56.670Z,61.12
2023-03-30T07:31:25.133Z,60.66
2023-03-30T07:33:53.531Z,60.24
2023-03-30T07:36:25.423Z,60.45
2023-03-30T07:38:53.873Z,60.31
2023-03-30T07:41:21.448Z,60.04
2023-03-30T07:43:53.849Z,59.84
2023-03-30T07:46:21.737Z,59.68
2023-03-30T07:48:53.569Z,59.59
2023-03-30T07:51:21.374Z,59.42
2023-03-30T07:54:02.827Z,59.25
2023-03-30T07:56:44.606Z,59.20
2023-03-30T07:59:13.568Z,59.22
2023-03-30T08:01:44.888Z,59.19
2023-03-30T08:04:19.660Z,59.54
2023-03-30T08:06:47.497Z,59.68
2023-03-30T08:09:16.380Z,60.31
2023-03-30T08:11:44.034Z,60.86
2023-03-30T08:14:11.891Z,60.77
2023-03-30T08:16:39.453Z,60.37
2023-03-30T08:19:07.081Z,61.17
2023-03-30T08:21:34.779Z,60.83
2023-03-30T08:24:02.380Z,60.62
2023-03-30T08:26:30.879Z,60.55
2023-03-30T08:28:58.430Z,60.13
2023-03-30T08:31:26.203Z,59.92
2023-03-30T08:33:53.896Z,59.72
2023-03-30T08:36:21.510Z,59.71
2023-03-30T08:38:49.099Z,59.75
2023-03-30T08:41:29.232Z,59.67
2023-03-30T08:44:05.905Z,59.55
2023-03-30T08:46:33.911Z,59.44
2023-03-30T08:49:11.650Z,59.61
2023-03-30T08:51:39.496Z,59.53
2023-03-30T08:54:14.368Z,59.15
2023-03-30T08:57:12.502Z,59.14
2023-03-30T08:59:58.291Z,58.77
2023-03-30T09:02:40.328Z,58.74
2023-03-30T09:05:21.990Z,58.81
2023-03-30T09:08:13.278Z,58.63
2023-03-30T09:10:48.794Z,58.10
2023-03-30T09:13:20.672Z,58.42
2023-03-30T09:16:09.408Z,58.28
2023-03-30T09:18:39.556Z,58.05
2023-03-30T09:21:12.607Z,58.27
2023-03-30T09:23:40.641Z,57.99
2023-03-30T09:26:11.464Z,57.89
2023-03-30T09:28:48.266Z,58.03
2023-03-30T09:31:32.765Z,57.70
2023-03-30T09:34:08.764Z,57.62
2023-03-30T09:37:02.432Z,57.46
2023-03-30T09:39:33.911Z,56.98
2023-03-30T09:42:16.337Z,57.06
2023-03-30T09:45:22.505Z,57.04
2023-03-30T09:47:50.151Z,56.80
2023-03-30T09:50:24.160Z,56.74
2023-03-30T09:56:58.489Z,56.30
2023-03-30T09:59:35.978Z,56.37
2023-03-30T10:02:31.354Z,56.49
2023-03-30T10:05:02.615Z,56.79
2023-03-30T10:07:36.467Z,56.61
2023-03-30T10:10:20.253Z,56.66
2023-03-30T10:12:54.049Z,56.16
2023-03-30T10:15:24.405Z,56.71
2023-03-30T10:17:56.153Z,56.69
2023-03-30T10:20:27.302Z,57.22
2023-03-30T10:23:03.032Z,57.39
2023-03-30T10:25:33.648Z,57.54
2023-03-30T10:28:04.793Z,57.57
2023-03-30T10:30:33.422Z,57.37
2023-03-30T10:33:02.978Z,57.26
2023-03-30T10:35:37.789Z,56.95
2023-03-30T10:38:07.786Z,56.15
2023-03-30T10:40:40.736Z,56.06
2023-03-30T10:43:25.214Z,55.80
2023-03-30T10:46:09.088Z,55.29
2023-03-30T10:49:13.153Z,55.54
2023-03-30T10:52:15.610Z,54.14
2023-03-30T10:55:17.740Z,54.32
2023-03-30T10:58:21.032Z,51.98
2023-03-30T11:01:03.700Z,52.64
2023-03-30T11:03:33.059Z,52.46
2023-03-30T11:06:14.013Z,52.77
2023-03-30T11:08:47.266Z,52.56
2023-03-30T11:11:29.641Z,51.86
2023-03-30T11:14:02.871Z,51.58
2023-03-30T11:16:53.811Z,51.48
2023-03-30T11:19:38.951Z,50.26
2023-03-30T11:22:36.212Z,50.02
2023-03-30T11:25:26.761Z,49.70
2023-03-30T11:28:04.747Z,49.76
2023-03-30T11:30:36.182Z,49.80
2023-03-30T11:33:26.966Z,50.21
2023-03-30T11:36:03.876Z,50.08
2023-03-30T11:38:49.912Z,49.80
2023-03-30T11:41:47.224Z,50.04
2023-03-30T11:44:14.691Z,50.18
2023-03-30T11:47:01.219Z,50.22
2023-03-30T11:50:02.903Z,50.12
2023-03-30T11:53:02.090Z,50.13
2023-03-30T11:55:59.864Z,49.98
2023-03-30T11:58:37.187Z,49.48
2023-03-30T12:01:23.351Z,49.79
2023-03-30T12:04:15.184Z,49.89
2023-03-30T12:06:53.051Z,49.72
2023-03-30T12:09:34.871Z,49.23
2023-03-30T12:12:15.584Z,49.20
2023-03-30T12:15:26.530Z,49.33
2023-03-30T12:18:09.030Z,49.18
2023-03-30T12:21:16.985Z,49.35
2023-03-30T12:24:01.269Z,48.48
2023-03-30T12:26:39.619Z,47.84
2023-03-30T12:29:48.124Z,48.14
2023-03-30T12:32:18.852Z,47.60
2023-03-30T12:34:46.463Z,47.42
2023-03-30T12:37:28.484Z,47.15
2023-03-30T12:40:18.949Z,45.87
2023-03-30T12:43:08.582Z,45.70
2023-03-30T12:45:47.805Z,45.88
2023-03-30T12:48:44.431Z,45.99
2023-03-30T12:51:56.963Z,44.52
2023-03-30T12:54:38.908Z,44.85
2023-03-30T12:57:53.842Z,44.89
2023-03-30T13:00:36.211Z,43.89
2023-03-30T13:03:27.891Z,43.59
2023-03-30T13:05:58.079Z,43.06
2023-03-30T13:08:40.719Z,42.34
2023-03-30T13:11:17.318Z,42.80
2023-03-30T13:13:53.704Z,42.63
2023-03-30T13:16:47.675Z,42.98
2023-03-30T13:19:31.012Z,42.82
2023-03-30T13:22:26.763Z,43.50
2023-03-30T13:25:17.684Z,43.34
2023-03-30T13:27:45.273Z,43.31
2023-03-30T13:30:15.397Z,42.25
2023-03-30T13:33:12.373Z,41.46
2023-03-30T13:36:06.602Z,42.13
2023-03-30T13:39:39.820Z,42.14
2023-03-30T13:42:38.917Z,41.35
2023-03-30T13:45:44.342Z,40.14
2023-03-30T13:48:52.235Z,40.13
2023-03-30T13:51:27.418Z,40.24
2023-03-30T13:54:11.797Z,40.68
2023-03-30T13:56:44.151Z,40.98
2023-03-30T13:59:19.475Z,41.09
2023-03-30T14:01:56.477Z,41.02
2023-03-30T14:04:33.775Z,41.21
2023-03-30T14:07:18.876Z,41.06
2023-03-30T14:10:14.062Z,40.73
2023-03-30T14:12:42.776Z,40.67
2023-03-30T14:15:38.577Z,39.39
2023-03-30T14:18:10.993Z,39.86
2023-03-30T14:20:59.169Z,39.36
2023-03-30T14:23:51.309Z,39.46
2023-03-30T14:26:26.614Z,39.42
2023-03-30T14:28:57.515Z,39.85
2023-03-30T14:31:27.280Z,40.50
2023-03-30T14:33:55.115Z,41.47
2023-03-30T14:36:23.005Z,46.01
2023-03-30T14:38:53.679Z,48.60
2023-03-30T14:41:29.312Z,49.92
2023-03-30T14:44:03.694Z,52.36
2023-03-30T14:46:48.292Z,53.80
2023-03-30T14:49:28.979Z,54.20
2023-03-30T14:52:22.414Z,53.86
2023-03-30T14:55:05.879Z,52.92
2023-03-30T14:57:39.382Z,51.93
2023-03-30T15:00:22.909Z,50.65
2023-03-30T15:02:57.827Z,49.04
2023-03-30T15:05:33.910Z,47.94
2023-03-30T15:08:03.771Z,45.26
2023-03-30T15:10:45.278Z,45.66
2023-03-30T15:13:36.607Z,44.41
2023-03-30T15:16:06.080Z,44.69
2023-03-30T15:18:36.352Z,43.99
2023-03-30T15:21:04.321Z,43.93
2023-03-30T15:23:39.096Z,42.80
2023-03-30T15:26:07.686Z,42.38
2023-03-30T15:28:57.627Z,42.32
2023-03-30T15:31:28.216Z,42.19
2023-03-30T15:34:00.848Z,41.55
2023-03-30T15:36:34.036Z,41.56
2023-03-30T15:39:01.650Z,40.82
2023-03-30T15:41:47.070Z,40.03
2023-03-30T15:44:22.186Z,40.64
2023-03-30T15:46:54.026Z,40.65
2023-03-30T15:49:29.548Z,40.31
2023-03-30T15:52:01.796Z,40.18
2023-03-30T15:54:48.450Z,40.42
2023-03-30T15:57:28.383Z,40.61
2023-03-30T16:00:20.486Z,40.15
2023-03-30T16:03:12.584Z,40.30
2023-03-30T16:05:41.282Z,40.12
2023-03-30T16:08:08.930Z,39.86
2023-03-30T16:10:37.822Z,40.26
2023-03-30T16:13:06.924Z,40.10
2023-03-30T16:15:34.555Z,40.28
2023-03-30T16:18:02.162Z,40.43
2023-03-30T16:20:32.140Z,40.37
2023-03-30T16:22:59.635Z,40.28
2023-03-30T16:25:34.468Z,40.47
2023-03-30T16:28:05.735Z,40.31
2023-03-30T16:30:38.409Z,40.21
2023-03-30T16:33:06.077Z,40.17
2023-03-30T16:35:33.665Z,39.75
2023-03-30T16:38:01.169Z,39.96
2023-03-30T16:40:42.831Z,39.78
2023-03-30T16:43:11.227Z,39.80
2023-03-30T16:45:38.916Z,39.96
2023-03-30T16:48:06.616Z,40.03
2023-03-30T16:50:43.790Z,40.20
2023-03-30T16:53:12.483Z,40.30
2023-03-30T16:55:41.017Z,40.21
2023-03-30T16:58:13.634Z,40.28
2023-03-30T17:00:45.902Z,40.46
2023-03-30T17:03:14.428Z,40.74
2023-03-30T17:05:45.557Z,41.02
2023-03-30T17:08:28.435Z,41.24
2023-03-30T17:11:00.928Z,41.37
2023-03-30T17:13:29.544Z,41.71
2023-03-30T17:15:59.672Z,41.66
2023-03-30T17:18:28.099Z,41.93
2023-03-30T17:21:00.835Z,42.09
2023-03-30T17:23:32.010Z,42.59
2023-03-30T17:26:01.571Z,42.64
2023-03-30T17:28:35.347Z,42.93
2023-03-30T17:31:04.447Z,43.75
2023-03-30T17:33:33.708Z,43.43
2023-03-30T17:36:19.442Z,44.01
2023-03-30T17:38:48.371Z,43.67
2023-03-30T17:41:19.245Z,43.57
2023-03-30T17:43:48.094Z,43.34
2023-03-30T17:46:18.271Z,43.31
2023-03-30T17:48:46.012Z,43.69
2023-03-30T17:51:13.532Z,43.82
2023-03-30T17:53:41.066Z,43.72
2023-03-30T17:56:13.060Z,43.79
2023-03-30T17:58:40.757Z,43.74
2023-03-30T18:01:12.188Z,44.07
2023-03-30T18:03:40.226Z,44.17
2023-03-30T18:06:08.007Z,44.24
2023-03-30T18:08:35.958Z,44.28
2023-03-30T18:11:04.960Z,43.93
2023-03-30T18:13:32.677Z,44.19
2023-03-30T18:16:01.110Z,44.32
2023-03-30T18:18:30.834Z,44.34
2023-03-30T18:21:05.095Z,44.06
2023-03-30T18:23:34.707Z,44.11
2023-03-30T18:26:08.596Z,44.14
2023-03-30T18:28:43.282Z,44.16
2023-03-30T18:31:11.063Z,44.08
2023-03-30T18:33:39.342Z,44.35
2023-03-30T18:36:14.563Z,44.35
2023-03-30T18:38:42.565Z,44.24
2023-03-30T18:41:13.476Z,44.51
2023-03-30T18:43:40.991Z,44.39
2023-03-30T18:46:12.413Z,44.51
2023-03-30T18:48:39.956Z,44.78
2023-03-30T18:51:10.440Z,44.91
2023-03-30T18:53:38.013Z,45.09
2023-03-30T18:56:06.738Z,45.19
2023-03-30T18:58:41.343Z,45.22
2023-03-30T19:01:09.542Z,45.29
2023-03-30T19:03:37.102Z,45.22
2023-03-30T19:06:04.936Z,45.25
2023-03-30T19:08:32.889Z,45.18
2023-03-30T19:11:00.408Z,45.27
2023-03-30T19:13:27.941Z,45.03
2023-03-30T19:15:55.626Z,44.97
2023-03-30T19:18:23.140Z,45.06
2023-03-30T19:20:51.859Z,44.92
2023-03-30T19:23:21.560Z,44.93
2023-03-30T19:25:49.362Z,44.92
2023-03-30T19:28:17.420Z,44.91
2023-03-30T19:30:45.272Z,44.93
2023-03-30T19:33:16.511Z,44.95
2023-03-30T19:35:46.131Z,45.09
2023-03-30T19:38:15.314Z,44.99
2023-03-30T19:40:43.200Z,45.00
2023-03-30T19:43:11.329Z,44.96
2023-03-30T19:45:39.562Z,44.81
2023-03-30T19:48:07.777Z,45.01
2023-03-30T19:50:35.498Z,45.15
2023-03-30T19:53:02.977Z,45.42
2023-03-30T19:55:30.552Z,45.49
2023-03-30T19:57:58.242Z,45.52
2023-03-30T20:00:25.968Z,45.84
2023-03-30T20:02:55.202Z,45.99
2023-03-30T20:05:24.178Z,46.22
2023-03-30T20:07:51.839Z,46.33
2023-03-30T20:10:24.460Z,46.37
2023-03-30T20:12:53.048Z,46.48
2023-03-30T20:15:23.707Z,46.53
2023-03-30T20:17:56.156Z,46.66
2023-03-30T20:20:25.352Z,46.77
2023-03-30T20:22:56.032Z,46.71
2023-03-30T20:25:24.459Z,46.69
2023-03-30T20:27:53.040Z,46.60
2023-03-30T20:30:21.370Z,46.52
2023-03-30T20:33:06.285Z,46.69
2023-03-30T20:35:37.089Z,46.60
2023-03-30T20:38:08.322Z,46.69
2023-03-30T20:40:36.073Z,46.51
2023-03-30T20:43:03.750Z,46.66
2023-03-30T20:45:31.637Z,46.63
2023-03-30T20:48:01.421Z,46.71
2023-03-30T20:50:28.920Z,46.57
2023-03-30T20:52:56.449Z,46.75
2023-03-30T20:55:23.942Z,46.72
2023-03-30T20:57:51.452Z,46.88
2023-03-30T21:00:19.771Z,47.06
2023-03-30T21:02:47.262Z,46.97
2023-03-30T21:05:14.876Z,47.15
2023-03-30T21:07:46.755Z,47.64
2023-03-30T21:10:16.207Z,47.33
2023-03-30T21:12:43.712Z,47.46
2023-03-30T21:15:11.501Z,47.68
2023-03-30T21:17:39.104Z,47.59
2023-03-30T21:20:10.699Z,47.68
2023-03-30T21:22:38.262Z,47.73
2023-03-30T21:25:06.269Z,47.96
2023-03-30T21:27:33.791Z,47.66
2023-03-30T21:30:01.312Z,47.87
2023-03-30T21:32:30.827Z,47.78
2023-03-30T21:34:59.089Z,47.81
2023-03-30T21:37:26.575Z,47.63
2023-03-30T21:39:54.054Z,47.70
2023-03-30T21:42:21.584Z,47.86
2023-03-30T21:44:49.060Z,47.72
2023-03-30T21:47:16.644Z,47.65
2023-03-30T21:49:44.176Z,47.62
2023-03-30T21:52:11.794Z,47.50
2023-03-30T21:54:39.403Z,47.38
2023-03-30T21:57:07.011Z,47.23
2023-03-30T21:59:34.708Z,47.01
2023-03-30T22:02:02.274Z,47.09
2023-03-30T22:04:29.775Z,46.99
2023-03-30T22:06:57.258Z,47.12
2023-03-30T22:09:24.813Z,46.99
2023-03-30T22:11:54.042Z,46.65
2023-03-30T22:14:22.364Z,46.81
2023-03-30T22:16:49.909Z,46.66
2023-03-30T22:19:18.915Z,46.58
2023-03-30T22:21:47.917Z,46.55
2023-03-30T22:24:18.061Z,46.22
2023-03-30T22:26:46.131Z,46.46
2023-03-30T22:29:13.682Z,46.32
2023-03-30T22:31:41.516Z,46.36
2023-03-30T22:34:09.129Z,46.25
2023-03-30T22:36:36.658Z,45.94
2023-03-30T22:39:04.401Z,46.02
2023-03-30T22:41:31.926Z,45.90
2023-03-30T22:43:59.492Z,46.02
2023-03-30T22:46:27.927Z,45.84
2023-03-30T22:48:56.179Z,45.79
2023-03-30T22:51:28.182Z,45.89
2023-03-30T22:54:00.803Z,45.89
2023-03-30T22:56:29.993Z,45.73
2023-03-30T22:59:00.708Z,45.92
2023-03-30T23:01:31.992Z,45.86
2023-03-30T23:04:00.679Z,45.77
2023-03-30T23:06:28.291Z,45.83
2023-03-30T23:08:55.867Z,45.81
2023-03-30T23:11:23.603Z,45.75
2023-03-30T23:13:52.128Z,45.69
2023-03-30T23:16:19.723Z,45.64
2023-03-30T23:18:47.858Z,45.87
2023-03-30T23:21:15.376Z,45.91
2023-03-30T23:23:43.511Z,45.73
2023-03-30T23:26:11.576Z,45.73
2023-03-30T23:28:41.749Z,45.67
2023-03-30T23:31:12.551Z,45.87
2023-03-30T23:33:41.516Z,45.73
2023-03-30T23:36:13.685Z,45.64
2023-03-30T23:38:42.914Z,45.70
2023-03-30T23:41:14.313Z,45.85
2023-03-30T23:43:41.941Z,45.46
2023-03-30T23:46:10.728Z,45.67
2023-03-30T23:48:39.399Z,45.81
2023-03-30T23:51:07.058Z,45.80
2023-03-30T23:53:34.821Z,45.69
2023-03-30T23:56:06.279Z,45.61
2023-03-30T23:58:34.127Z,45.72
